createdAt,value
2017-09-06T00:00:26.680Z,1000.3
2017-09-06T00:01:27.655Z,1000.3
2017-09-06T00:02:28.386Z,1000.2
2017-09-06T00:03:29.119Z,1000.2
2017-09-06T00:04:29.934Z,1000.2
2017-09-06T00:05:30.735Z,1000.2
2017-09-06T00:06:31.887Z,1000.2
2017-09-06T00:07:32.717Z,1000.1
2017-09-06T00:08:33.441Z,1000.2
2017-09-06T00:09:34.194Z,1000.2
2017-09-06T00:10:34.983Z,1000.1
2017-09-06T00:11:36.100Z,1000.2
2017-09-06T00:12:36.847Z,1000.2
2017-09-06T00:13:37.574Z,1000.1
2017-09-06T00:14:38.313Z,1000.2
2017-09-06T00:15:39.045Z,1000.2
2017-09-06T00:16:40.040Z,1000.2
2017-09-06T00:17:40.865Z,1000.2
2017-09-06T00:18:41.662Z,1000.2
2017-09-06T00:19:42.466Z,1000.2
2017-09-06T00:20:43.273Z,1000.2
2017-09-06T00:21:44.244Z,1000.2
2017-09-06T00:22:44.984Z,1000.2
2017-09-06T00:23:45.766Z,1000.2
2017-09-06T00:24:46.577Z,1000.3
2017-09-06T00:25:47.344Z,1000.3
2017-09-06T00:26:48.390Z,1000.3
2017-09-06T00:27:49.116Z,1000.4
2017-09-06T00:28:49.885Z,1000.3
2017-09-06T00:29:50.702Z,1000.4
2017-09-06T00:30:51.503Z,1000.3
2017-09-06T00:31:52.593Z,1000.3
2017-09-06T00:32:53.335Z,1000.3
2017-09-06T00:33:54.135Z,1000.3
2017-09-06T00:34:54.825Z,1000.3
2017-09-06T00:35:55.635Z,1000.3
2017-09-06T00:36:56.375Z,1000.3
2017-09-06T00:37:57.187Z,1000.3
2017-09-06T00:38:57.996Z,1000.3
2017-09-06T00:39:59.012Z,1000.2
2017-09-06T00:40:59.741Z,1000.2
2017-09-06T00:42:00.469Z,1000.2
2017-09-06T00:43:01.203Z,1000.2
2017-09-06T00:44:01.941Z,1000.3
2017-09-06T00:45:02.670Z,1000.3
2017-09-06T00:46:03.715Z,1000.3
2017-09-06T00:47:04.513Z,1000.2
2017-09-06T00:48:05.328Z,1000.3
2017-09-06T00:49:06.134Z,1000.3
2017-09-06T00:50:06.882Z,1000.2
2017-09-06T00:51:07.903Z,1000.2
2017-09-06T00:52:08.643Z,1000.2
2017-09-06T00:53:09.361Z,1000.2
2017-09-06T00:54:10.179Z,1000.2
2017-09-06T00:55:10.985Z,1000.2
2017-09-06T00:56:12.230Z,1000.2
2017-09-06T00:57:12.957Z,1000.1
2017-09-06T00:58:13.690Z,1000.2
2017-09-06T00:59:14.444Z,1000.1
2017-09-06T01:00:15.221Z,1000.1
2017-09-06T01:01:16.228Z,1000.2
2017-09-06T01:02:17.030Z,1000.1
2017-09-06T01:03:17.844Z,1000.1
2017-09-06T01:04:18.576Z,1000.1
2017-09-06T01:05:19.368Z,1000.1
2017-09-06T01:06:20.466Z,1000.1
2017-09-06T01:07:21.264Z,1000.1
2017-09-06T01:08:22.008Z,1000.1
2017-09-06T01:09:22.796Z,1000.1
2017-09-06T01:10:23.524Z,1000.1
2017-09-06T01:11:24.566Z,1000.1
2017-09-06T01:12:25.313Z,1000.0
2017-09-06T01:13:26.117Z,1000.0
2017-09-06T01:14:26.928Z,1000.0
2017-09-06T01:15:27.724Z,1000.0
2017-09-06T01:16:28.871Z,1000.0
2017-09-06T01:17:29.627Z,1000.0
2017-09-06T01:18:30.411Z,1000.0
2017-09-06T01:19:31.223Z,1000.0
2017-09-06T01:20:31.968Z,999.9
2017-09-06T01:21:33.151Z,1000.0
2017-09-06T01:22:33.890Z,1000.0
2017-09-06T01:23:34.634Z,999.9
2017-09-06T01:24:35.429Z,999.9
2017-09-06T01:25:36.230Z,999.9
2017-09-06T01:26:37.351Z,999.9
2017-09-06T01:27:38.050Z,999.9
2017-09-06T01:28:38.804Z,999.9
2017-09-06T01:29:39.622Z,999.9
2017-09-06T01:30:40.354Z,999.9
2017-09-06T01:31:41.490Z,1000.0
2017-09-06T01:32:42.222Z,1000.0
2017-09-06T01:33:42.959Z,999.9
2017-09-06T01:34:43.691Z,999.9
2017-09-06T01:35:44.424Z,999.9
2017-09-06T01:36:45.525Z,999.9
2017-09-06T01:37:46.263Z,999.9
2017-09-06T01:38:46.998Z,999.9
2017-09-06T01:39:47.815Z,999.9
2017-09-06T01:40:48.569Z,999.8
2017-09-06T01:41:49.673Z,999.8
2017-09-06T01:42:50.410Z,999.9
2017-09-06T01:43:51.161Z,999.9
2017-09-06T01:44:51.894Z,999.8
2017-09-06T01:45:52.621Z,999.9
2017-09-06T01:46:53.661Z,999.8
2017-09-06T01:47:54.401Z,999.8
2017-09-06T01:48:55.142Z,999.8
2017-09-06T01:49:55.941Z,999.8
2017-09-06T01:50:56.689Z,999.8
2017-09-06T01:51:57.820Z,999.8
2017-09-06T01:52:58.566Z,999.8
2017-09-06T01:53:59.356Z,999.8
2017-09-06T01:55:00.124Z,999.7
2017-09-06T01:56:00.905Z,999.7
2017-09-06T01:57:02.045Z,999.7
2017-09-06T01:58:03.532Z,999.7
2017-09-06T01:59:04.388Z,999.8
2017-09-06T02:00:05.124Z,999.7
2017-09-06T02:01:05.855Z,999.7
2017-09-06T02:02:06.945Z,999.7
2017-09-06T02:03:07.672Z,999.7
2017-09-06T02:04:08.410Z,999.7
2017-09-06T02:05:09.158Z,999.7
2017-09-06T02:06:09.966Z,999.7
2017-09-06T02:07:11.001Z,999.7
2017-09-06T02:08:11.788Z,999.7
2017-09-06T02:09:12.510Z,999.7
2017-09-06T02:10:13.264Z,999.7
2017-09-06T02:11:14.042Z,999.7
2017-09-06T02:12:15.075Z,999.7
2017-09-06T02:13:15.798Z,999.7
2017-09-06T02:14:16.530Z,999.6
2017-09-06T02:15:17.270Z,999.6
2017-09-06T02:16:18.005Z,999.6
2017-09-06T02:17:19.052Z,999.6
2017-09-06T02:18:19.788Z,999.6
2017-09-06T02:19:20.530Z,999.7
2017-09-06T02:20:21.319Z,999.7
2017-09-06T02:21:22.042Z,999.6
2017-09-06T02:22:23.105Z,999.7
2017-09-06T02:23:23.856Z,999.7
2017-09-06T02:24:24.649Z,999.6
2017-09-06T02:25:25.390Z,999.6
2017-09-06T02:26:26.134Z,999.6
2017-09-06T02:27:27.180Z,999.6
2017-09-06T02:28:27.980Z,999.6
2017-09-06T02:29:28.790Z,999.6
2017-09-06T02:30:29.523Z,999.6
2017-09-06T02:31:30.270Z,999.6
2017-09-06T02:32:31.824Z,999.5
2017-09-06T02:33:32.560Z,999.5
2017-09-06T02:34:33.294Z,999.6
2017-09-06T02:35:34.025Z,999.6
2017-09-06T02:36:34.762Z,999.5
2017-09-06T02:37:35.910Z,999.5
2017-09-06T02:38:36.653Z,999.5
2017-09-06T02:39:37.383Z,999.5
2017-09-06T02:40:38.106Z,999.5
2017-09-06T02:41:38.840Z,999.5
2017-09-06T02:42:39.860Z,999.5
2017-09-06T02:43:40.607Z,999.5
2017-09-06T02:44:41.376Z,999.4
2017-09-06T02:45:42.129Z,999.4
2017-09-06T02:46:42.863Z,999.5
2017-09-06T02:47:43.803Z,999.5
2017-09-06T02:48:44.599Z,999.5
2017-09-06T02:49:45.436Z,999.4
2017-09-06T02:50:46.219Z,999.5
2017-09-06T02:51:46.951Z,999.4
2017-09-06T02:52:47.988Z,999.4
2017-09-06T02:53:48.711Z,999.4
2017-09-06T02:54:49.515Z,999.4
2017-09-06T02:55:50.268Z,999.4
2017-09-06T02:56:51.049Z,999.3
2017-09-06T02:57:52.138Z,999.3
2017-09-06T02:58:52.932Z,999.3
2017-09-06T02:59:53.719Z,999.3
2017-09-06T03:00:54.455Z,999.4
2017-09-06T03:01:55.190Z,999.4
2017-09-06T03:02:55.987Z,999.4
2017-09-06T03:03:56.960Z,999.4
2017-09-06T03:04:57.684Z,999.3
2017-09-06T03:05:58.431Z,999.3
2017-09-06T03:06:59.245Z,999.3
2017-09-06T03:08:00.051Z,999.3
2017-09-06T03:09:00.988Z,999.3
2017-09-06T03:10:01.721Z,999.3
2017-09-06T03:11:02.460Z,999.3
2017-09-06T03:12:03.209Z,999.3
2017-09-06T03:13:04.015Z,999.3
2017-09-06T03:14:04.954Z,999.3
2017-09-06T03:15:05.680Z,999.3
2017-09-06T03:16:06.416Z,999.3
2017-09-06T03:17:07.150Z,999.3
2017-09-06T03:18:07.880Z,999.3
2017-09-06T03:19:08.685Z,999.3
2017-09-06T03:20:09.500Z,999.3
2017-09-06T03:21:10.650Z,999.3
2017-09-06T03:22:11.381Z,999.3
2017-09-06T03:23:12.124Z,999.2
2017-09-06T03:24:12.861Z,999.3
2017-09-06T03:25:13.591Z,999.2
2017-09-06T03:26:14.592Z,999.2
2017-09-06T03:27:15.325Z,999.2
2017-09-06T03:28:16.137Z,999.2
2017-09-06T03:29:16.869Z,999.2
2017-09-06T03:30:17.604Z,999.2
2017-09-06T03:31:18.345Z,999.2
2017-09-06T03:32:19.459Z,999.2
2017-09-06T03:33:20.263Z,999.2
2017-09-06T03:34:20.991Z,999.2
2017-09-06T03:35:21.785Z,999.2
2017-09-06T03:36:22.537Z,999.2
2017-09-06T03:37:23.770Z,999.2
2017-09-06T03:38:24.501Z,999.2
2017-09-06T03:39:25.305Z,999.1
2017-09-06T03:40:26.043Z,999.2
2017-09-06T03:41:26.765Z,999.1
2017-09-06T03:42:27.849Z,999.1
2017-09-06T03:43:28.664Z,999.1
2017-09-06T03:44:29.412Z,999.1
2017-09-06T03:45:30.214Z,999.1
2017-09-06T03:46:30.940Z,999.1
2017-09-06T03:47:31.677Z,999.1
2017-09-06T03:48:32.472Z,999.1
2017-09-06T03:49:33.584Z,999.0
2017-09-06T03:50:34.324Z,999.1
2017-09-06T03:51:35.072Z,999.0
2017-09-06T03:52:35.802Z,999.0
2017-09-06T03:53:36.621Z,998.9
2017-09-06T03:54:37.763Z,998.9
2017-09-06T03:55:38.578Z,999.0
2017-09-06T03:56:39.309Z,998.9
2017-09-06T03:57:40.131Z,998.8
2017-09-06T03:58:40.932Z,998.8
2017-09-06T03:59:42.011Z,998.8
2017-09-06T04:00:42.744Z,998.8
2017-09-06T04:01:43.505Z,998.8
2017-09-06T04:02:44.215Z,998.8
2017-09-06T04:03:44.951Z,998.8
2017-09-06T04:04:46.081Z,998.8
2017-09-06T04:05:46.802Z,998.8
2017-09-06T04:06:47.614Z,998.8
2017-09-06T04:07:48.364Z,998.7
2017-09-06T04:08:49.110Z,998.7
2017-09-06T04:09:50.050Z,998.7
2017-09-06T04:10:50.790Z,998.7
2017-09-06T04:11:51.539Z,998.7
2017-09-06T04:12:52.355Z,998.7
2017-09-06T04:13:53.139Z,998.7
2017-09-06T04:14:54.283Z,998.7
2017-09-06T04:15:55.016Z,998.7
2017-09-06T04:16:55.766Z,998.7
2017-09-06T04:17:56.506Z,998.7
2017-09-06T04:18:57.305Z,998.7
2017-09-06T04:19:58.299Z,998.7
2017-09-06T04:20:59.069Z,998.7
2017-09-06T04:21:59.805Z,998.7
2017-09-06T04:23:00.546Z,998.7
2017-09-06T04:24:01.282Z,998.7
2017-09-06T04:25:02.429Z,998.7
2017-09-06T04:26:03.229Z,998.7
2017-09-06T04:27:03.987Z,998.7
2017-09-06T04:28:04.735Z,998.7
2017-09-06T04:29:05.545Z,998.7
2017-09-06T04:30:06.284Z,998.7
2017-09-06T04:31:07.274Z,998.7
2017-09-06T04:32:08.055Z,998.6
2017-09-06T04:33:08.795Z,998.6
2017-09-06T04:34:09.532Z,998.7
2017-09-06T04:35:10.358Z,998.6
2017-09-06T04:36:11.342Z,998.6
2017-09-06T04:37:12.139Z,998.6
2017-09-06T04:38:12.887Z,998.6
2017-09-06T04:39:13.682Z,998.6
2017-09-06T04:40:14.466Z,998.6
2017-09-06T04:41:15.628Z,998.6
2017-09-06T04:42:16.434Z,998.6
2017-09-06T04:43:17.210Z,998.5
2017-09-06T04:44:17.950Z,998.5
2017-09-06T04:45:18.702Z,998.5
2017-09-06T04:46:19.780Z,998.5
2017-09-06T04:47:20.528Z,998.5
2017-09-06T04:48:21.341Z,998.5
2017-09-06T04:49:22.072Z,998.5
2017-09-06T04:50:22.876Z,998.5
2017-09-06T04:51:23.813Z,998.5
2017-09-06T04:52:24.609Z,998.5
2017-09-06T04:53:25.385Z,998.5
2017-09-06T04:54:26.173Z,998.6
2017-09-06T04:55:26.910Z,998.6
2017-09-06T04:56:27.904Z,998.6
2017-09-06T04:57:28.706Z,998.6
2017-09-06T04:58:29.504Z,998.6
2017-09-06T04:59:30.249Z,998.5
2017-09-06T05:00:31.032Z,998.5
2017-09-06T05:01:32.241Z,998.5
2017-09-06T05:02:32.972Z,998.5
2017-09-06T05:03:33.803Z,998.6
2017-09-06T05:04:34.543Z,998.5
2017-09-06T05:05:35.279Z,998.4
2017-09-06T05:06:36.375Z,998.5
2017-09-06T05:07:37.131Z,998.5
2017-09-06T05:08:37.920Z,998.4
2017-09-06T05:09:38.674Z,998.4
2017-09-06T05:10:39.475Z,998.5
2017-09-06T05:11:40.611Z,998.4
2017-09-06T05:12:41.360Z,998.4
2017-09-06T05:13:42.109Z,998.4
2017-09-06T05:14:42.841Z,998.4
2017-09-06T05:15:43.581Z,998.5
2017-09-06T05:16:44.620Z,998.5
2017-09-06T05:17:45.434Z,998.4
2017-09-06T05:18:46.172Z,998.5
2017-09-06T05:19:47.009Z,998.4
2017-09-06T05:20:47.740Z,998.4
2017-09-06T05:21:48.791Z,998.4
2017-09-06T05:22:49.595Z,998.4
2017-09-06T05:23:50.344Z,998.4
2017-09-06T05:24:51.092Z,998.3
2017-09-06T05:25:51.880Z,998.3
2017-09-06T05:26:52.825Z,998.3
2017-09-06T05:27:53.634Z,998.4
2017-09-06T05:28:54.385Z,998.3
2017-09-06T05:29:55.134Z,998.3
2017-09-06T05:30:55.865Z,998.3
2017-09-06T05:31:56.805Z,998.3
2017-09-06T05:32:57.594Z,998.3
2017-09-06T05:33:58.330Z,998.3
2017-09-06T05:34:59.097Z,998.3
2017-09-06T05:35:59.910Z,998.3
2017-09-06T05:37:01.063Z,998.2
2017-09-06T05:38:01.865Z,998.2
2017-09-06T05:39:02.613Z,998.2
2017-09-06T05:40:03.362Z,998.2
2017-09-06T05:41:04.183Z,998.1
2017-09-06T05:42:04.973Z,998.2
2017-09-06T05:43:05.727Z,998.2
2017-09-06T05:44:06.525Z,998.2
2017-09-06T05:45:07.289Z,998.2
2017-09-06T05:46:08.090Z,998.2
2017-09-06T05:47:09.236Z,998.2
2017-09-06T05:48:10.032Z,998.2
2017-09-06T05:49:10.814Z,998.2
2017-09-06T05:50:11.588Z,998.2
2017-09-06T05:51:12.398Z,998.2
2017-09-06T05:52:13.397Z,998.1
2017-09-06T05:53:14.144Z,998.2
2017-09-06T05:54:14.904Z,998.2
2017-09-06T05:55:15.718Z,998.2
2017-09-06T05:56:16.460Z,998.2
2017-09-06T05:57:17.460Z,998.2
2017-09-06T05:58:18.198Z,998.2
2017-09-06T05:59:18.992Z,998.2
2017-09-06T06:00:19.742Z,998.2
2017-09-06T06:01:20.537Z,998.2
2017-09-06T06:02:21.275Z,998.3
2017-09-06T06:03:22.061Z,998.3
2017-09-06T06:04:22.811Z,998.3
2017-09-06T06:05:23.810Z,998.2
2017-09-06T06:06:24.564Z,998.3
2017-09-06T06:07:25.300Z,998.3
2017-09-06T06:08:26.054Z,998.2
2017-09-06T06:09:26.809Z,998.2
2017-09-06T06:10:27.555Z,998.1
2017-09-06T06:11:28.740Z,998.1
2017-09-06T06:12:29.558Z,998.1
2017-09-06T06:13:30.290Z,998.1
2017-09-06T06:14:31.038Z,998.1
2017-09-06T06:15:31.844Z,998.1
2017-09-06T06:16:32.979Z,998.1
2017-09-06T06:17:33.821Z,998.1
2017-09-06T06:18:34.567Z,998.1
2017-09-06T06:19:35.373Z,998.1
2017-09-06T06:20:36.121Z,998.1
2017-09-06T06:21:37.203Z,998.1
2017-09-06T06:22:37.965Z,998.0
2017-09-06T06:23:38.714Z,998.1
2017-09-06T06:24:39.448Z,998.1
2017-09-06T06:25:40.212Z,998.1
2017-09-06T06:26:41.424Z,998.0
2017-09-06T06:27:42.161Z,998.0
2017-09-06T06:28:42.900Z,998.1
2017-09-06T06:29:43.713Z,998.0
2017-09-06T06:30:44.546Z,998.1
2017-09-06T06:31:45.694Z,998.1
2017-09-06T06:32:46.446Z,998.0
2017-09-06T06:33:47.288Z,998.0
2017-09-06T06:34:48.084Z,998.0
2017-09-06T06:35:48.832Z,998.0
2017-09-06T06:36:50.038Z,998.0
2017-09-06T06:37:50.774Z,998.0
2017-09-06T06:38:51.510Z,998.0
2017-09-06T06:39:52.253Z,998.0
2017-09-06T06:40:53.061Z,998.0
2017-09-06T06:41:54.195Z,998.0
2017-09-06T06:42:54.961Z,998.0
2017-09-06T06:43:55.717Z,998.0
2017-09-06T06:44:56.454Z,998.0
2017-09-06T06:45:57.263Z,998.0
2017-09-06T06:46:58.352Z,998.0
2017-09-06T06:47:59.164Z,998.0
2017-09-06T06:48:59.932Z,997.9
2017-09-06T06:50:00.712Z,998.0
2017-09-06T06:51:01.444Z,998.0
2017-09-06T06:52:02.582Z,998.0
2017-09-06T06:53:03.334Z,998.0
2017-09-06T06:54:04.152Z,998.0
2017-09-06T06:55:04.945Z,998.0
2017-09-06T06:56:05.681Z,998.0
2017-09-06T06:57:06.721Z,998.0
2017-09-06T06:58:07.476Z,998.0
2017-09-06T06:59:08.302Z,998.0
2017-09-06T07:00:09.042Z,998.0
2017-09-06T07:01:09.781Z,997.9
2017-09-06T07:02:10.986Z,997.9
2017-09-06T07:03:11.819Z,998.0
2017-09-06T07:04:12.596Z,997.9
2017-09-06T07:05:13.332Z,997.9
2017-09-06T07:06:14.122Z,997.9
2017-09-06T07:07:15.211Z,997.9
2017-09-06T07:08:15.944Z,997.9
2017-09-06T07:09:16.681Z,997.9
2017-09-06T07:10:17.421Z,997.9
2017-09-06T07:11:18.157Z,997.9
2017-09-06T07:12:19.284Z,997.9
2017-09-06T07:13:20.087Z,997.9
2017-09-06T07:14:20.904Z,997.9
2017-09-06T07:15:21.653Z,997.9
2017-09-06T07:16:22.414Z,997.9
2017-09-06T07:17:23.545Z,997.9
2017-09-06T07:18:24.307Z,997.8
2017-09-06T07:19:25.107Z,997.8
2017-09-06T07:20:25.873Z,997.8
2017-09-06T07:21:26.682Z,997.8
2017-09-06T07:22:27.673Z,997.8
2017-09-06T07:23:28.484Z,997.8
2017-09-06T07:24:29.213Z,997.8
2017-09-06T07:25:30.028Z,997.7
2017-09-06T07:26:30.791Z,997.7
2017-09-06T07:27:31.762Z,997.7
2017-09-06T07:28:32.506Z,997.7
2017-09-06T07:29:33.242Z,997.7
2017-09-06T07:30:33.982Z,997.7
2017-09-06T07:31:34.722Z,997.7
2017-09-06T07:32:35.771Z,997.7
2017-09-06T07:33:36.564Z,997.7
2017-09-06T07:34:37.303Z,997.7
2017-09-06T07:35:38.042Z,997.7
2017-09-06T07:36:38.782Z,997.7
2017-09-06T07:37:39.527Z,997.6
2017-09-06T07:38:40.323Z,997.7
2017-09-06T07:39:41.491Z,997.7
2017-09-06T07:40:42.272Z,997.7
2017-09-06T07:41:42.995Z,997.7
2017-09-06T07:42:43.733Z,997.7
2017-09-06T07:43:44.542Z,997.7
2017-09-06T07:44:45.289Z,997.7
2017-09-06T07:45:46.291Z,997.7
2017-09-06T07:46:47.083Z,997.6
2017-09-06T07:47:47.897Z,997.6
2017-09-06T07:48:48.683Z,997.7
2017-09-06T07:49:49.421Z,997.6
2017-09-06T07:50:50.504Z,997.6
2017-09-06T07:51:51.242Z,997.6
2017-09-06T07:52:52.053Z,997.7
2017-09-06T07:53:52.877Z,997.6
2017-09-06T07:54:53.594Z,997.6
2017-09-06T07:55:54.703Z,997.6
2017-09-06T07:56:55.432Z,997.7
2017-09-06T07:57:56.198Z,997.6
2017-09-06T07:58:56.982Z,997.7
2017-09-06T07:59:57.746Z,997.7
2017-09-06T08:00:58.511Z,997.6
2017-09-06T08:01:59.445Z,997.6
2017-09-06T08:03:00.196Z,997.6
2017-09-06T08:04:00.943Z,997.7
2017-09-06T08:05:01.753Z,997.6
2017-09-06T08:06:02.561Z,997.7
2017-09-06T08:07:03.492Z,997.7
2017-09-06T08:08:04.227Z,997.6
2017-09-06T08:09:04.963Z,997.7
2017-09-06T08:10:05.711Z,997.6
2017-09-06T08:11:06.457Z,997.7
2017-09-06T08:12:07.553Z,997.7
2017-09-06T08:13:08.292Z,997.7
2017-09-06T08:14:09.031Z,997.7
2017-09-06T08:15:09.768Z,997.7
2017-09-06T08:16:10.507Z,997.7
2017-09-06T08:17:11.653Z,997.6
2017-09-06T08:18:12.462Z,997.6
2017-09-06T08:19:13.190Z,997.6
2017-09-06T08:20:13.927Z,997.6
2017-09-06T08:21:14.664Z,997.6
2017-09-06T08:22:15.829Z,997.6
2017-09-06T08:23:16.612Z,997.6
2017-09-06T08:24:17.362Z,997.6
2017-09-06T08:25:18.104Z,997.6
2017-09-06T08:26:18.881Z,997.6
2017-09-06T08:27:19.654Z,997.5
2017-09-06T08:28:20.401Z,997.6
2017-09-06T08:29:21.173Z,997.5
2017-09-06T08:30:21.914Z,997.5
2017-09-06T08:31:22.774Z,997.5
2017-09-06T08:32:23.922Z,997.5
2017-09-06T08:33:24.671Z,997.5
2017-09-06T08:34:25.422Z,997.5
2017-09-06T08:35:26.162Z,997.5
2017-09-06T08:36:26.902Z,997.6
2017-09-06T08:37:27.651Z,997.5
2017-09-06T08:38:28.548Z,997.6
2017-09-06T08:39:29.290Z,997.6
2017-09-06T08:40:30.055Z,997.6
2017-09-06T08:41:30.801Z,997.6
2017-09-06T08:42:31.552Z,997.6
2017-09-06T08:43:32.312Z,997.6
2017-09-06T08:44:33.101Z,997.6
2017-09-06T08:45:33.854Z,997.6
2017-09-06T08:46:34.587Z,997.6
2017-09-06T08:47:35.343Z,997.5
2017-09-06T08:48:36.448Z,997.5
2017-09-06T08:49:37.192Z,997.6
2017-09-06T08:50:37.924Z,997.6
2017-09-06T08:51:38.722Z,997.6
2017-09-06T08:52:39.463Z,997.6
2017-09-06T08:53:40.552Z,997.6
2017-09-06T08:54:41.283Z,997.6
2017-09-06T08:55:42.023Z,997.6
2017-09-06T08:56:42.836Z,997.5
2017-09-06T08:57:43.612Z,997.6
2017-09-06T08:58:44.652Z,997.5
2017-09-06T08:59:45.392Z,997.6
2017-09-06T09:00:46.131Z,997.5
2017-09-06T09:01:46.872Z,997.6
2017-09-06T09:02:47.619Z,997.5
2017-09-06T09:03:48.817Z,997.5
2017-09-06T09:04:49.552Z,997.5
2017-09-06T09:05:50.292Z,997.5
2017-09-06T09:06:51.033Z,997.5
2017-09-06T09:07:51.821Z,997.5
2017-09-06T09:08:52.762Z,997.5
2017-09-06T09:09:53.513Z,997.5
2017-09-06T09:10:54.298Z,997.5
2017-09-06T09:11:55.041Z,997.6
2017-09-06T09:12:55.781Z,997.5
2017-09-06T09:13:56.933Z,997.5
2017-09-06T09:14:57.669Z,997.5
2017-09-06T09:15:58.458Z,997.6
2017-09-06T09:16:59.259Z,997.6
2017-09-06T09:18:00.023Z,997.5
2017-09-06T09:19:01.113Z,997.5
2017-09-06T09:20:01.913Z,997.5
2017-09-06T09:21:02.650Z,997.4
2017-09-06T09:22:03.475Z,997.5
2017-09-06T09:23:04.241Z,997.5
2017-09-06T09:24:05.232Z,997.5
2017-09-06T09:25:05.974Z,997.5
2017-09-06T09:26:06.773Z,997.5
2017-09-06T09:27:07.513Z,997.4
2017-09-06T09:28:08.255Z,997.4
2017-09-06T09:29:09.201Z,997.5
2017-09-06T09:30:09.952Z,997.4
2017-09-06T09:31:10.700Z,997.5
2017-09-06T09:32:11.441Z,997.5
2017-09-06T09:33:12.172Z,997.6
2017-09-06T09:34:13.268Z,997.6
2017-09-06T09:35:14.017Z,997.6
2017-09-06T09:36:14.823Z,997.6
2017-09-06T09:37:15.561Z,997.7
2017-09-06T09:38:16.301Z,997.6
2017-09-06T09:39:17.051Z,997.6
2017-09-06T09:40:18.158Z,997.7
2017-09-06T09:41:18.932Z,997.8
2017-09-06T09:42:19.673Z,997.8
2017-09-06T09:43:20.511Z,997.8
2017-09-06T09:44:21.269Z,997.8
2017-09-06T09:45:22.078Z,997.8
2017-09-06T09:46:22.993Z,997.8
2017-09-06T09:47:23.742Z,997.7
2017-09-06T09:48:24.521Z,997.8
2017-09-06T09:49:25.258Z,997.7
2017-09-06T09:50:26.000Z,997.7
2017-09-06T09:51:27.215Z,997.7
2017-09-06T09:52:27.947Z,997.7
2017-09-06T09:53:28.887Z,997.7
2017-09-06T09:54:29.631Z,997.7
2017-09-06T09:55:30.374Z,997.7
2017-09-06T09:56:32.066Z,997.7
2017-09-06T09:57:33.340Z,997.7
2017-09-06T09:58:34.142Z,997.7
2017-09-06T09:59:34.888Z,997.7
2017-09-06T10:00:35.690Z,997.7
2017-09-06T10:01:36.866Z,997.8
2017-09-06T10:02:37.664Z,997.8
2017-09-06T10:03:38.401Z,997.8
2017-09-06T10:04:39.152Z,997.8
2017-09-06T10:05:39.893Z,997.9
2017-09-06T10:06:40.832Z,997.8
2017-09-06T10:07:41.569Z,997.8
2017-09-06T10:08:42.321Z,997.8
2017-09-06T10:09:43.133Z,997.9
2017-09-06T10:10:43.874Z,997.8
2017-09-06T10:11:44.616Z,997.9
2017-09-06T10:12:45.683Z,997.8
2017-09-06T10:13:46.463Z,997.8
2017-09-06T10:14:47.212Z,997.9
2017-09-06T10:15:47.961Z,997.8
2017-09-06T10:16:48.778Z,997.9
2017-09-06T10:17:49.843Z,997.9
2017-09-06T10:18:50.631Z,997.9
2017-09-06T10:19:51.362Z,997.9
2017-09-06T10:20:52.164Z,997.9
2017-09-06T10:21:52.936Z,998.0
2017-09-06T10:22:53.991Z,998.0
2017-09-06T10:23:54.731Z,998.0
2017-09-06T10:24:55.530Z,998.0
2017-09-06T10:25:56.310Z,997.9
2017-09-06T10:26:57.052Z,998.0
2017-09-06T10:27:58.132Z,997.9
2017-09-06T10:28:59.265Z,997.9
2017-09-06T10:29:59.935Z,998.0
2017-09-06T10:31:00.744Z,997.9
2017-09-06T10:32:01.554Z,998.0
2017-09-06T10:33:02.535Z,998.0
2017-09-06T10:34:03.284Z,997.9
2017-09-06T10:35:04.026Z,998.0
2017-09-06T10:36:04.755Z,998.0
2017-09-06T10:37:05.559Z,998.0
2017-09-06T10:38:06.305Z,998.0
2017-09-06T10:39:07.491Z,998.1
2017-09-06T10:40:08.230Z,998.1
2017-09-06T10:41:09.043Z,998.1
2017-09-06T10:42:09.867Z,998.2
2017-09-06T10:43:10.676Z,998.1
2017-09-06T10:44:11.804Z,998.2
2017-09-06T10:45:12.551Z,998.3
2017-09-06T10:46:13.293Z,998.2
2017-09-06T10:47:14.109Z,998.2
2017-09-06T10:48:14.845Z,998.2
2017-09-06T10:49:15.884Z,998.3
2017-09-06T10:50:16.616Z,998.2
2017-09-06T10:51:17.375Z,998.2
2017-09-06T10:52:18.144Z,998.2
2017-09-06T10:53:18.892Z,998.2
2017-09-06T10:54:19.942Z,998.3
2017-09-06T10:55:20.676Z,998.3
2017-09-06T10:56:21.516Z,998.2
2017-09-06T10:57:22.312Z,998.3
2017-09-06T10:58:23.052Z,998.3
2017-09-06T10:59:24.194Z,998.3
2017-09-06T11:00:24.929Z,998.4
2017-09-06T11:01:25.671Z,998.3
2017-09-06T11:02:26.411Z,998.4
2017-09-06T11:03:27.145Z,998.4
2017-09-06T11:04:28.082Z,998.4
2017-09-06T11:05:29.987Z,998.4
2017-09-06T11:06:30.934Z,998.4
2017-09-06T11:07:31.672Z,998.4
2017-09-06T11:08:32.411Z,998.4
2017-09-06T11:09:33.448Z,998.4
2017-09-06T11:10:34.188Z,998.4
2017-09-06T11:11:35.026Z,998.5
2017-09-06T11:12:35.773Z,998.5
2017-09-06T11:13:36.497Z,998.5
2017-09-06T11:14:37.529Z,998.6
2017-09-06T11:15:38.262Z,998.6
2017-09-06T11:16:39.021Z,998.6
2017-09-06T11:17:39.780Z,998.6
2017-09-06T11:18:40.520Z,998.6
2017-09-06T11:19:41.648Z,998.7
2017-09-06T11:20:42.352Z,998.6
2017-09-06T11:21:43.092Z,998.6
2017-09-06T11:22:43.845Z,998.6
2017-09-06T11:23:44.644Z,998.7
2017-09-06T11:24:45.786Z,998.7
2017-09-06T11:25:46.568Z,998.7
2017-09-06T11:26:47.376Z,998.7
2017-09-06T11:27:48.113Z,998.7
2017-09-06T11:28:48.921Z,998.7
2017-09-06T11:29:50.108Z,998.7
2017-09-06T11:30:50.838Z,998.8
2017-09-06T11:31:51.574Z,998.8
2017-09-06T11:32:52.312Z,998.8
2017-09-06T11:33:53.553Z,998.8
2017-09-06T11:34:54.235Z,998.8
2017-09-06T11:35:54.976Z,998.8
2017-09-06T11:36:55.742Z,998.8
2017-09-06T11:37:56.572Z,998.8
2017-09-06T11:38:57.661Z,998.8
2017-09-06T11:39:58.434Z,998.8
2017-09-06T11:40:59.252Z,998.9
2017-09-06T11:42:00.056Z,998.9
2017-09-06T11:43:00.896Z,998.9
2017-09-06T11:44:01.974Z,998.9
2017-09-06T11:45:02.793Z,999.0
2017-09-06T11:46:03.532Z,999.0
2017-09-06T11:47:04.275Z,998.9
2017-09-06T11:48:05.072Z,999.0
2017-09-06T11:49:06.162Z,999.0
2017-09-06T11:50:06.891Z,998.9
2017-09-06T11:51:07.632Z,999.0
2017-09-06T11:52:08.384Z,999.0
2017-09-06T11:53:09.200Z,998.9
2017-09-06T11:54:09.892Z,998.9
2017-09-06T11:55:10.703Z,998.9
2017-09-06T11:56:11.692Z,999.0
2017-09-06T11:57:12.433Z,999.0
2017-09-06T11:58:13.232Z,999.0
2017-09-06T11:59:13.962Z,999.0
2017-09-06T12:00:14.923Z,999.0
2017-09-06T12:01:15.895Z,999.0
2017-09-06T12:02:16.808Z,999.0
2017-09-06T12:03:17.563Z,999.1
2017-09-06T12:04:18.372Z,999.1
2017-09-06T12:05:19.758Z,999.2
2017-09-06T12:06:20.648Z,999.2
2017-09-06T12:07:21.436Z,999.3
2017-09-06T12:08:22.212Z,999.3
2017-09-06T12:09:22.953Z,999.3
2017-09-06T12:10:23.722Z,999.3
2017-09-06T12:11:24.821Z,999.4
2017-09-06T12:12:25.566Z,999.5
2017-09-06T12:13:26.295Z,999.5
2017-09-06T12:14:27.032Z,999.5
2017-09-06T12:15:27.806Z,999.5
2017-09-06T12:16:28.942Z,999.5
2017-09-06T12:17:29.684Z,999.5
2017-09-06T12:18:30.410Z,999.6
2017-09-06T12:19:31.152Z,999.6
2017-09-06T12:20:31.905Z,999.6
2017-09-06T12:21:32.963Z,999.6
2017-09-06T12:22:33.711Z,999.7
2017-09-06T12:23:34.492Z,999.6
2017-09-06T12:24:35.229Z,999.6
2017-09-06T12:25:35.986Z,999.6
2017-09-06T12:26:37.080Z,999.7
2017-09-06T12:27:37.823Z,999.6
2017-09-06T12:28:38.631Z,999.7
2017-09-06T12:29:39.367Z,999.6
2017-09-06T12:30:40.113Z,999.6
2017-09-06T12:31:41.592Z,999.7
2017-09-06T12:33:56.586Z,999.6
2017-09-06T12:34:57.323Z,999.6
2017-09-06T12:35:58.131Z,999.7
2017-09-06T12:36:59.213Z,999.6
2017-09-06T12:37:59.953Z,999.6
2017-09-06T12:39:00.643Z,999.6
2017-09-06T12:40:01.457Z,999.6
2017-09-06T12:41:02.272Z,999.6
2017-09-06T12:42:04.185Z,999.6
2017-09-06T12:43:04.888Z,999.5
2017-09-06T12:44:05.622Z,999.6
2017-09-06T12:45:06.377Z,999.6
2017-09-06T12:46:07.163Z,999.5
2017-09-06T12:47:07.966Z,999.5
2017-09-06T12:48:08.687Z,999.5
2017-09-06T12:49:09.429Z,999.5
2017-09-06T12:50:10.574Z,999.5
2017-09-06T12:51:11.355Z,999.5
2017-09-06T12:52:12.135Z,999.5
2017-09-06T12:53:12.872Z,999.5
2017-09-06T12:54:13.616Z,999.4
2017-09-06T12:55:14.788Z,999.5
2017-09-06T12:56:15.573Z,999.5
2017-09-06T12:57:16.377Z,999.5
2017-09-06T12:58:17.192Z,999.5
2017-09-06T12:59:18.001Z,999.5
2017-09-06T13:00:19.100Z,999.5
2017-09-06T13:01:19.921Z,999.5
2017-09-06T13:02:20.698Z,999.5